Time;durP1;ratioP1;P1;durP2;ratioP2;P2;SDS_P1;SDS_P2;PMS_P1;PMS_P2;Temp;Humidity;BMP_temperature;BMP_pressure;BME280_temperature;BME280_humidity;BME280_pressure;Samples;Min_cycle;Max_cycle;Signal;HPM_P1;HPM_P2
2021/12/12 00:01:22;;;;;;;13.80;8.43;;;3.50;99.90;;;;;;4880386;29;20471;-80
2021/12/12 00:03:53;;;;;;;12.33;6.63;;;3.50;99.90;;;;;;4879272;29;20562;-77
2021/12/12 00:06:26;;;;;;;8.97;6.40;;;3.60;99.90;;;;;;4880223;29;20452;-78
2021/12/12 00:08:59;;;;;;;10.70;6.63;;;3.60;99.90;;;;;;4879424;29;20485;-77
2021/12/12 00:11:28;;;;;;;11.23;7.10;;;3.50;99.90;;;;;;4879138;29;20464;-76
2021/12/12 00:13:58;;;;;;;12.60;6.83;;;3.50;99.90;;;;;;4878860;29;20563;-77
2021/12/12 00:16:24;;;;;;;11.23;7.60;;;3.50;99.90;;;;;;4880296;29;20466;-77
2021/12/12 00:18:50;;;;;;;8.53;6.93;;;3.60;99.90;;;;;;4877047;29;21032;-80
2021/12/12 00:21:18;;;;;;;12.07;7.70;;;3.50;99.90;;;;;;4893322;29;21000;-79
2021/12/12 00:23:44;;;;;;;19.40;8.03;;;3.50;99.90;;;;;;4892451;29;20229;-79
2021/12/12 00:26:09;;;;;;;13.13;6.90;;;3.50;99.90;;;;;;4891154;29;20465;-78
2021/12/12 00:28:37;;;;;;;8.23;6.80;;;3.50;99.90;;;;;;4883085;29;20770;-78
2021/12/12 00:31:09;;;;;;;15.87;7.83;;;3.50;99.90;;;;;;4863583;29;20220;-78
2021/12/12 00:33:36;;;;;;;11.73;8.60;;;3.60;99.90;;;;;;4864305;29;20421;-78
2021/12/12 00:36:03;;;;;;;13.73;7.23;;;3.60;99.90;;;;;;4873099;29;20929;-78
2021/12/12 00:38:31;;;;;;;16.00;8.43;;;3.60;99.90;;;;;;4879561;29;20425;-78
2021/12/12 00:41:02;;;;;;;9.23;5.70;;;3.60;99.90;;;;;;4881913;29;20445;-78
2021/12/12 00:43:39;;;;;;;11.10;6.53;;;3.60;99.90;;;;;;4884494;29;20444;-78
2021/12/12 00:46:08;;;;;;;9.40;7.23;;;3.60;99.90;;;;;;4882951;29;20564;-78
2021/12/12 00:48:34;;;;;;;7.97;5.90;;;3.50;99.90;;;;;;4887104;29;20412;-78
2021/12/12 00:51:04;;;;;;;8.10;6.63;;;3.50;99.90;;;;;;4885595;29;20473;-78
2021/12/12 00:53:31;;;;;;;8.00;6.17;;;3.50;99.90;;;;;;4885124;29;20509;-78
2021/12/12 00:55:57;;;;;;;8.40;6.07;;;3.50;99.90;;;;;;4870688;29;20495;-78
2021/12/12 00:58:24;;;;;;;7.07;6.00;;;3.50;99.90;;;;;;4877890;29;20468;-78
2021/12/12 05:32:08;;;;;;;5.90;3.93;;;0.60;99.90;;;;;;5338636;23;20572;-78
2021/12/12 05:34:37;;;;;;;5.83;3.50;;;0.70;99.90;;;;;;4916301;29;20401;-76
2021/12/12 05:37:05;;;;;;;6.00;4.03;;;0.80;99.90;;;;;;4917856;29;20446;-77
2021/12/12 05:39:32;;;;;;;4.33;3.60;;;0.90;99.90;;;;;;4918151;29;20494;-79
2021/12/12 05:41:58;;;;;;;5.60;3.00;;;1.00;99.90;;;;;;4916493;29;20516;-78
2021/12/12 05:44:27;;;;;;;3.73;3.40;;;1.10;99.90;;;;;;4917915;29;20444;-78
2021/12/12 05:46:57;;;;;;;3.60;3.30;;;1.20;99.90;;;;;;4908409;29;20453;-78
2021/12/12 05:49:23;;;;;;;3.83;2.47;;;1.30;99.90;;;;;;4899279;29;20422;-79
2021/12/12 05:51:48;;;;;;;7.03;3.30;;;1.30;99.90;;;;;;4900265;29;20621;-78
2021/12/12 05:54:14;;;;;;;4.17;3.77;;;1.40;99.90;;;;;;4901108;29;20197;-80
2021/12/12 05:56:41;;;;;;;5.60;3.50;;;1.50;99.90;;;;;;4901779;29;20199;-80
2021/12/12 05:59:09;;;;;;;4.93;2.63;;;1.50;99.90;;;;;;4901435;29;20928;-79
2021/12/12 06:01:35;;;;;;;4.00;3.57;;;1.60;99.90;;;;;;4899202;29;20444;-79
2021/12/12 06:04:01;;;;;;;4.30;3.60;;;1.60;99.90;;;;;;4899157;29;20426;-78
2021/12/12 06:06:30;;;;;;;3.90;3.00;;;1.60;99.90;;;;;;4899598;29;20421;-78
2021/12/12 06:09:00;;;;;;;4.93;3.60;;;1.70;99.90;;;;;;4899215;29;20711;-79
2021/12/12 06:11:30;;;;;;;6.93;3.60;;;1.70;99.90;;;;;;4899229;29;21359;-78
2021/12/12 06:13:56;;;;;;;6.10;4.13;;;1.70;99.90;;;;;;4899168;29;20474;-79
2021/12/12 06:16:23;;;;;;;3.83;3.53;;;1.60;99.90;;;;;;4899265;29;20463;-79
2021/12/12 06:18:53;;;;;;;5.80;3.87;;;1.70;99.90;;;;;;4899163;29;20464;-79
2021/12/12 06:21:19;;;;;;;6.77;3.73;;;1.70;99.90;;;;;;4899598;29;20443;-79
2021/12/12 06:23:45;;;;;;;5.30;3.90;;;1.70;99.90;;;;;;4901278;29;20430;-78
2021/12/12 06:26:11;;;;;;;8.00;3.20;;;1.70;99.90;;;;;;4898800;29;20416;-79
2021/12/12 06:28:40;;;;;;;4.03;3.73;;;1.70;99.90;;;;;;4897238;29;20443;-78
2021/12/12 06:31:07;;;;;;;3.10;2.80;;;1.80;99.90;;;;;;4897730;29;20215;-76
2021/12/12 06:33:35;;;;;;;4.93;3.10;;;1.80;99.90;;;;;;4897876;29;20907;-76
2021/12/12 06:36:02;;;;;;;3.73;2.87;;;1.80;99.90;;;;;;4897760;29;20503;-76
2021/12/12 06:38:27;;;;;;;4.57;2.70;;;1.90;99.90;;;;;;4897874;29;20394;-76
2021/12/12 06:40:54;;;;;;;2.60;2.40;;;1.90;99.90;;;;;;4897708;29;20955;-76
2021/12/12 06:43:21;;;;;;;4.30;3.20;;;1.90;99.90;;;;;;4897023;29;20715;-76
2021/12/12 06:45:48;;;;;;;4.77;3.60;;;1.90;99.90;;;;;;4897767;29;20506;-76
2021/12/12 06:48:14;;;;;;;4.60;3.63;;;1.90;99.90;;;;;;4897742;29;20437;-76
2021/12/12 06:50:43;;;;;;;5.83;3.73;;;1.80;99.90;;;;;;4897777;29;20475;-76
2021/12/12 06:53:11;;;;;;;3.97;3.27;;;1.80;99.90;;;;;;4897232;29;20469;-77
2021/12/12 06:55:44;;;;;;;4.10;2.87;;;1.80;99.90;;;;;;4897606;29;20404;-75
2021/12/12 06:58:11;;;;;;;4.40;3.07;;;1.70;99.90;;;;;;4897672;29;20775;-76
2021/12/12 07:00:38;;;;;;;5.90;3.23;;;1.60;99.90;;;;;;4897380;29;20855;-76
2021/12/12 07:03:04;;;;;;;7.80;3.50;;;1.60;99.90;;;;;;4897353;29;20512;-76
2021/12/12 07:05:31;;;;;;;6.20;3.97;;;1.50;99.90;;;;;;4897539;29;20426;-76
2021/12/12 07:07:58;;;;;;;4.50;3.90;;;1.40;99.90;;;;;;4896564;29;20424;-73
2021/12/12 07:10:26;;;;;;;4.00;3.60;;;1.40;99.90;;;;;;4896164;29;20434;-75
2021/12/12 07:12:55;;;;;;;5.53;3.90;;;1.40;99.90;;;;;;4896091;29;20453;-74
2021/12/12 07:15:24;;;;;;;4.20;3.50;;;1.40;99.90;;;;;;4896335;29;20420;-73
2021/12/12 07:17:56;;;;;;;4.00;3.67;;;1.40;99.90;;;;;;4895142;29;20932;-73
2021/12/12 07:20:23;;;;;;;4.80;4.03;;;1.40;99.90;;;;;;4895973;29;21001;-74
2021/12/12 07:22:49;;;;;;;14.17;9.00;;;1.40;99.90;;;;;;4895884;29;20473;-74
2021/12/12 07:25:15;;;;;;;8.80;6.00;;;1.40;99.90;;;;;;4896140;29;20504;-74
2021/12/12 07:27:41;;;;;;;5.80;5.20;;;1.40;99.90;;;;;;4896262;29;20664;-75
2021/12/12 07:30:08;;;;;;;5.60;4.03;;;1.40;99.90;;;;;;4894663;29;20476;-73
2021/12/12 07:32:38;;;;;;;4.00;3.47;;;1.40;99.90;;;;;;4895780;29;20228;-74
2021/12/12 07:35:11;;;;;;;6.30;4.57;;;1.40;99.90;;;;;;4895733;29;20422;-73
2021/12/12 07:37:38;;;;;;;4.33;3.87;;;1.40;99.90;;;;;;4896216;29;20412;-74
2021/12/12 07:40:06;;;;;;;6.33;3.97;;;1.40;99.90;;;;;;4895759;29;20438;-74
2021/12/12 07:42:32;;;;;;;6.77;3.80;;;1.50;99.90;;;;;;4895974;29;20534;-75
2021/12/12 07:44:58;;;;;;;5.73;4.13;;;1.50;99.90;;;;;;4895606;29;20527;-74
2021/12/12 07:47:25;;;;;;;6.90;4.40;;;1.50;99.90;;;;;;4895927;29;20193;-75
2021/12/12 07:49:51;;;;;;;8.83;4.97;;;1.60;99.90;;;;;;4895821;29;20412;-74
2021/12/12 07:52:23;;;;;;;5.73;4.20;;;1.60;99.90;;;;;;4895839;29;20445;-74
2021/12/12 07:54:49;;;;;;;3.60;3.30;;;1.70;99.90;;;;;;4895343;29;20958;-73
2021/12/12 07:57:16;;;;;;;4.40;3.10;;;1.80;99.90;;;;;;4899382;29;20425;-74
2021/12/12 07:59:42;;;;;;;7.07;3.13;;;2.00;99.90;;;;;;4899282;29;20816;-73
2021/12/12 08:02:11;;;;;;;4.60;3.33;;;2.10;99.90;;;;;;4899165;29;20443;-74
2021/12/12 08:04:38;;;;;;;4.53;3.40;;;2.20;99.90;;;;;;4899133;29;20435;-74
2021/12/12 08:07:07;;;;;;;3.43;3.00;;;2.40;99.90;;;;;;4897913;29;20924;-75
2021/12/12 08:09:33;;;;;;;3.80;2.90;;;2.50;99.90;;;;;;4899363;29;20637;-74
2021/12/12 08:11:59;;;;;;;2.00;1.70;;;2.60;99.90;;;;;;4899228;29;20410;-75
2021/12/12 08:14:27;;;;;;;2.47;2.27;;;2.70;99.90;;;;;;4899090;29;20787;-75
2021/12/12 08:16:54;;;;;;;2.20;2.10;;;2.80;99.90;;;;;;4899272;29;20436;-75
2021/12/12 08:19:21;;;;;;;1.87;1.73;;;2.90;99.90;;;;;;4901024;29;20584;-74
2021/12/12 08:21:48;;;;;;;2.73;2.50;;;3.00;99.90;;;;;;4899243;29;20450;-75
2021/12/12 08:24:15;;;;;;;2.50;2.03;;;3.10;99.90;;;;;;4898827;29;20434;-74
2021/12/12 08:26:44;;;;;;;2.57;2.13;;;3.20;99.90;;;;;;4899425;29;20455;-75
2021/12/12 08:29:11;;;;;;;2.20;2.10;;;3.30;99.90;;;;;;4898958;29;20439;-75
2021/12/12 08:31:38;;;;;;;2.00;1.90;;;3.30;99.90;;;;;;4898833;29;20565;-75
2021/12/12 08:34:07;;;;;;;5.17;2.60;;;3.30;99.90;;;;;;4898769;29;20921;-75
2021/12/12 08:36:35;;;;;;;3.00;2.40;;;3.40;99.90;;;;;;4899314;29;20415;-75
2021/12/12 08:39:04;;;;;;;2.87;2.57;;;3.40;99.90;;;;;;4899710;29;20496;-75
2021/12/12 08:41:30;;;;;;;3.27;2.20;;;3.40;99.90;;;;;;4898788;29;20439;-75
2021/12/12 08:43:56;;;;;;;1.83;1.73;;;3.40;99.90;;;;;;4898579;29;20886;-75
2021/12/12 08:46:23;;;;;;;2.67;2.20;;;3.40;99.90;;;;;;4899114;29;20180;-76
2021/12/12 08:48:51;;;;;;;3.53;1.90;;;3.30;99.90;;;;;;4898826;29;20398;-75
2021/12/12 08:51:22;;;;;;;1.87;1.70;;;3.40;99.90;;;;;;4898402;29;20865;-75
2021/12/12 08:53:54;;;;;;;2.50;2.40;;;3.40;99.90;;;;;;4898383;29;20420;-74
2021/12/12 08:56:31;;;;;;;2.80;2.60;;;3.40;99.90;;;;;;4898270;29;20830;-75
2021/12/12 08:58:59;;;;;;;2.70;1.70;;;3.50;99.90;;;;;;4898283;29;20466;-75
2021/12/12 09:01:25;;;;;;;3.87;3.40;;;3.60;99.90;;;;;;4898163;29;20447;-74
2021/12/12 09:04:01;;;;;;;2.80;2.60;;;3.80;99.90;;;;;;4898201;29;20423;-75
2021/12/12 09:06:30;;;;;;;2.17;1.97;;;3.80;99.90;;;;;;4897441;29;20419;-75
2021/12/12 09:09:18;;;;;;;2.50;1.80;;;3.90;99.90;;;;;;4898181;29;20432;-74
2021/12/12 09:11:52;;;;;;;2.60;2.07;;;4.00;99.90;;;;;;4898110;29;20870;-74
2021/12/12 09:14:24;;;;;;;3.20;2.73;;;4.10;99.90;;;;;;4897839;29;20410;-75
2021/12/12 09:16:58;;;;;;;3.33;1.53;;;4.20;99.90;;;;;;4898119;29;20424;-75
2021/12/12 09:19:29;;;;;;;1.83;1.70;;;4.20;99.90;;;;;;4897902;29;20468;-75
2021/12/12 09:21:57;;;;;;;1.90;1.80;;;4.20;99.90;;;;;;4897952;29;20941;-74
2021/12/12 09:24:49;;;;;;;4.70;2.40;;;4.20;99.90;;;;;;4897703;29;20425;-75
2021/12/12 09:27:32;;;;;;;3.23;1.30;;;4.30;99.90;;;;;;4897836;29;20387;-75
2021/12/12 09:29:58;;;;;;;1.43;1.33;;;4.40;99.90;;;;;;4897795;29;20941;-75
2021/12/12 09:32:44;;;;;;;2.60;2.00;;;4.40;99.90;;;;;;4896355;29;20453;-74
2021/12/12 09:35:20;;;;;;;1.93;1.10;;;4.50;99.90;;;;;;4897667;29;20738;-75
2021/12/12 09:37:51;;;;;;;1.37;1.27;;;4.60;99.90;;;;;;4897929;29;20468;-74
2021/12/12 09:40:29;;;;;;;1.70;1.27;;;4.70;99.90;;;;;;4897832;29;20545;-75
2021/12/12 09:43:41;;;;;;;1.70;1.60;;;4.80;99.90;;;;;;4897657;29;20392;-75
2021/12/12 09:46:31;;;;;;;1.90;1.80;;;4.90;99.90;;;;;;4897621;29;20878;-74
2021/12/12 09:52:54;;;;;;;1.33;1.23;;;5.10;99.90;;;;;;4886164;29;20465;-75
2021/12/12 09:55:44;;;;;;;2.20;1.43;;;5.40;99.90;;;;;;4897677;29;20401;-75
2021/12/12 09:58:32;;;;;;;1.43;1.07;;;5.80;99.90;;;;;;4897290;29;20511;-75
2021/12/12 10:01:04;;;;;;;1.93;1.00;;;6.00;99.90;;;;;;4897457;29;21004;-75
2021/12/12 10:04:03;;;;;;;1.47;1.37;;;6.10;99.90;;;;;;4897433;29;20900;-74
2021/12/12 10:06:45;;;;;;;1.53;1.23;;;6.00;99.90;;;;;;4897450;29;20501;-75
2021/12/12 10:09:14;;;;;;;1.23;1.23;;;5.90;99.90;;;;;;4909062;29;20421;-75
2021/12/12 10:11:48;;;;;;;1.27;1.17;;;5.80;99.90;;;;;;4915815;29;20953;-75
2021/12/12 10:14:34;;;;;;;1.47;1.37;;;5.80;99.90;;;;;;4915179;29;20423;-75
2021/12/12 10:17:11;;;;;;;2.30;1.53;;;5.90;99.90;;;;;;4916974;29;20418;-75
2021/12/12 10:19:42;;;;;;;2.00;1.20;;;5.90;99.90;;;;;;4916172;29;20997;-75
2021/12/12 10:22:26;;;;;;;2.23;1.10;;;6.00;99.90;;;;;;4915727;29;20439;-75
2021/12/12 10:25:11;;;;;;;1.20;1.10;;;5.90;99.90;;;;;;4930414;29;20777;-76
2021/12/12 10:27:58;;;;;;;2.20;1.17;;;5.90;99.90;;;;;;4916092;29;20452;-75
2021/12/12 10:30:28;;;;;;;2.47;1.30;;;6.00;99.90;;;;;;4915720;29;20494;-76
2021/12/12 10:33:19;;;;;;;4.57;3.00;;;6.00;99.90;;;;;;4915433;29;20547;-74
2021/12/12 10:36:11;;;;;;;8.23;6.07;;;5.90;99.90;;;;;;4915756;29;20826;-74
2021/12/12 10:39:05;;;;;;;1.53;1.43;;;6.00;99.90;;;;;;4912942;29;20438;-75
2021/12/12 10:41:48;;;;;;;1.83;1.33;;;6.00;99.90;;;;;;4907107;29;20460;-74
2021/12/12 10:44:19;;;;;;;4.30;1.10;;;6.10;99.90;;;;;;4915346;29;20442;-75
2021/12/12 10:47:08;;;;;;;2.07;1.77;;;6.20;99.90;;;;;;4915560;29;20412;-76
2021/12/12 10:49:55;;;;;;;1.90;1.27;;;6.20;99.90;;;;;;4915566;29;20461;-75
2021/12/12 10:52:38;;;;;;;5.63;1.27;;;6.30;99.90;;;;;;4915021;29;20465;-75
2021/12/12 10:55:12;;;;;;;3.57;3.27;;;6.40;99.90;;;;;;4915138;29;20484;-75
2021/12/12 10:57:39;;;;;;;2.30;2.17;;;6.50;99.90;;;;;;4915515;29;20415;-74
2021/12/12 11:00:13;;;;;;;3.90;1.50;;;6.60;99.90;;;;;;4915126;29;20566;-73
2021/12/12 11:03:01;;;;;;;1.93;1.47;;;6.90;99.90;;;;;;4915195;29;20455;-75
2021/12/12 11:05:32;;;;;;;2.67;1.67;;;7.10;99.90;;;;;;4915532;29;20837;-74
2021/12/12 11:08:14;;;;;;;1.30;1.20;;;7.30;99.90;;;;;;4915372;29;20861;-77
2021/12/12 11:10:44;;;;;;;2.50;1.27;;;7.50;99.90;;;;;;4915716;29;20428;-76
2021/12/12 11:13:32;;;;;;;2.80;1.30;;;7.60;99.90;;;;;;4924594;29;20429;-76
2021/12/12 11:16:18;;;;;;;2.23;0.97;;;7.60;99.90;;;;;;4934474;29;20460;-76
2021/12/12 11:18:53;;;;;;;1.53;1.40;;;7.50;99.90;;;;;;4933901;29;20807;-74
2021/12/12 11:21:21;;;;;;;2.30;1.50;;;7.60;99.90;;;;;;4948864;29;20452;-73
2021/12/12 11:23:52;;;;;;;3.80;0.90;;;7.50;99.90;;;;;;4934152;29;20893;-75
2021/12/12 11:26:22;;;;;;;2.97;1.30;;;7.40;99.90;;;;;;4934248;29;20434;-75
2021/12/12 11:29:00;;;;;;;1.17;0.90;;;7.30;99.90;;;;;;4923625;29;20422;-75
2021/12/12 11:31:35;;;;;;;1.10;0.80;;;7.30;99.90;;;;;;4918331;29;20455;-75
2021/12/12 11:34:03;;;;;;;4.50;2.67;;;7.20;99.90;;;;;;4918658;29;20757;-75
2021/12/12 11:36:34;;;;;;;4.07;1.33;;;7.20;99.90;;;;;;4918918;29;20486;-75
2021/12/12 11:39:20;;;;;;;3.20;1.80;;;7.00;99.90;;;;;;4918991;29;20462;-75
2021/12/12 11:41:58;;;;;;;2.20;1.60;;;6.80;99.90;;;;;;4918781;29;20926;-75
2021/12/12 11:44:57;;;;;;;3.70;2.20;;;6.90;99.90;;;;;;4918396;29;20417;-76
2021/12/12 11:47:53;;;;;;;2.20;1.83;;;6.90;99.90;;;;;;4913480;29;20441;-75
2021/12/12 11:50:33;;;;;;;1.40;1.13;;;7.00;99.90;;;;;;4918659;29;20420;-76
2021/12/12 11:53:04;;;;;;;9.07;1.50;;;7.00;99.90;;;;;;4918224;29;20432;-75
2021/12/12 11:55:57;;;;;;;1.47;1.10;;;7.00;99.90;;;;;;4918447;29;20424;-76
2021/12/12 11:58:36;;;;;;;3.37;1.10;;;6.90;99.90;;;;;;4918499;29;20425;-75
2021/12/12 12:01:23;;;;;;;0.90;0.77;;;6.80;99.90;;;;;;4918380;29;20881;-76
2021/12/12 12:04:12;;;;;;;1.00;0.73;;;6.90;99.90;;;;;;4919054;29;20417;-78
2021/12/12 12:07:11;;;;;;;2.13;1.87;;;6.80;99.90;;;;;;4918356;29;20422;-76
2021/12/12 12:09:48;;;;;;;2.47;1.17;;;6.80;99.90;;;;;;4918078;29;20560;-77
2021/12/12 12:12:32;;;;;;;1.30;1.10;;;6.80;99.90;;;;;;4919980;29;20441;-78
2021/12/12 12:15:19;;;;;;;2.43;1.13;;;6.90;99.90;;;;;;4917497;29;20415;-78
2021/12/12 12:18:08;;;;;;;4.30;0.97;;;7.00;99.90;;;;;;4918083;29;20414;-78
2021/12/12 12:20:52;;;;;;;3.50;1.00;;;7.10;99.90;;;;;;4917871;29;20523;-77
2021/12/12 12:23:19;;;;;;;3.53;1.10;;;7.10;99.90;;;;;;4916408;29;20446;-76
2021/12/12 12:28:52;;;;;;;2.70;1.00;;;7.40;99.90;;;;;;4918042;29;20531;-76
2021/12/12 12:31:54;;;;;;;1.70;1.10;;;7.50;99.90;;;;;;4917467;29;21204;-77
2021/12/12 12:34:57;;;;;;;2.73;1.90;;;7.40;99.90;;;;;;4917019;29;20472;-77
2021/12/12 12:38:06;;;;;;;2.60;2.40;;;7.40;99.90;;;;;;4917309;29;20418;-77
2021/12/12 12:40:53;;;;;;;6.33;1.50;;;7.30;99.90;;;;;;4917020;29;21034;-76
2021/12/12 12:43:56;;;;;;;3.53;1.73;;;7.30;99.90;;;;;;4916743;29;20419;-78
2021/12/12 12:46:43;;;;;;;4.17;1.50;;;7.30;99.90;;;;;;4917151;29;20918;-77
2021/12/12 12:49:32;;;;;;;7.10;4.60;;;7.40;99.90;;;;;;4917246;29;20426;-75
2021/12/12 12:52:20;;;;;;;6.00;4.53;;;7.30;99.90;;;;;;4917109;29;20444;-77
2021/12/12 12:55:24;;;;;;;5.23;1.70;;;7.40;99.90;;;;;;4917022;29;20416;-77
2021/12/12 12:57:54;;;;;;;3.00;1.30;;;7.30;99.90;;;;;;4917314;29;20430;-76
2021/12/12 13:00:22;;;;;;;1.10;1.10;;;7.40;99.90;;;;;;4916876;29;20465;-77
2021/12/12 13:03:05;;;;;;;1.70;0.97;;;7.40;99.90;;;;;;4916855;29;20446;-76
2021/12/12 13:05:56;;;;;;;1.10;1.00;;;7.40;99.90;;;;;;4917331;29;20420;-77
2021/12/12 13:08:49;;;;;;;1.40;1.30;;;7.40;99.90;;;;;;4907306;29;20432;-77
2021/12/12 13:11:22;;;;;;;1.10;1.00;;;7.30;99.90;;;;;;4916973;29;20431;-76
2021/12/12 13:14:06;;;;;;;2.60;1.40;;;7.30;99.90;;;;;;4916678;29;20418;-76
2021/12/12 13:17:11;;;;;;;2.20;0.87;;;7.30;99.90;;;;;;4916934;29;20507;-76
2021/12/12 13:19:42;;;;;;;2.53;1.80;;;7.30;99.90;;;;;;4916753;29;20468;-77
2021/12/12 13:22:19;;;;;;;3.63;1.93;;;7.20;99.90;;;;;;4916742;29;20439;-75
2021/12/12 13:25:12;;;;;;;1.73;1.50;;;7.10;99.90;;;;;;4916568;29;20416;-74
2021/12/12 13:27:58;;;;;;;9.60;1.90;;;7.10;99.90;;;;;;4916848;29;21030;-77
2021/12/12 13:30:40;;;;;;;2.27;1.40;;;7.10;99.90;;;;;;4915977;29;20420;-77
2021/12/12 13:33:38;;;;;;;3.90;1.17;;;7.10;99.90;;;;;;4915105;29;20443;-77
2021/12/12 13:36:16;;;;;;;1.60;1.30;;;7.10;99.90;;;;;;4915451;29;20423;-76
2021/12/12 13:39:09;;;;;;;4.70;1.40;;;7.00;99.90;;;;;;4916293;29;20418;-77
2021/12/12 13:42:06;;;;;;;3.50;1.20;;;7.10;99.90;;;;;;4918210;29;20764;-77
2021/12/12 13:44:40;;;;;;;2.07;1.27;;;7.00;99.90;;;;;;4915832;29;20980;-77
2021/12/12 13:47:17;;;;;;;3.70;1.53;;;6.90;99.90;;;;;;4916221;29;20475;-77
2021/12/12 13:49:59;;;;;;;1.47;1.20;;;6.90;99.90;;;;;;4916471;29;20450;-77
2021/12/12 13:52:49;;;;;;;2.50;1.30;;;6.90;99.90;;;;;;4917419;29;20440;-77
2021/12/12 13:55:20;;;;;;;5.50;1.27;;;6.90;99.90;;;;;;4920217;29;20423;-77
2021/12/12 13:58:14;;;;;;;2.70;1.30;;;6.90;99.90;;;;;;4916344;29;20865;-77
2021/12/12 14:00:45;;;;;;;4.60;1.93;;;6.90;99.90;;;;;;4916203;29;20550;-75
2021/12/12 14:03:32;;;;;;;1.33;1.23;;;6.80;99.90;;;;;;4915850;29;20419;-76
2021/12/12 14:06:01;;;;;;;2.00;1.73;;;6.80;99.90;;;;;;4916384;29;20404;-77
2021/12/12 14:08:31;;;;;;;5.57;4.27;;;6.80;99.90;;;;;;4917428;29;20503;-77
2021/12/12 14:11:04;;;;;;;3.07;2.00;;;6.80;99.90;;;;;;4916939;29;20448;-77
2021/12/12 14:13:42;;;;;;;3.80;1.60;;;6.80;99.90;;;;;;4915690;29;20447;-77
2021/12/12 14:16:20;;;;;;;1.50;1.40;;;6.80;99.90;;;;;;4916908;29;20418;-77
2021/12/12 14:19:01;;;;;;;1.67;1.20;;;6.80;99.90;;;;;;4919076;29;20787;-77
2021/12/12 14:21:27;;;;;;;2.10;1.43;;;6.70;99.90;;;;;;4915965;29;20973;-77
2021/12/12 14:23:53;;;;;;;3.03;1.23;;;6.70;99.90;;;;;;4915585;29;20416;-77
2021/12/12 14:26:33;;;;;;;1.30;1.20;;;6.70;99.90;;;;;;4915682;29;20764;-77
2021/12/12 14:29:03;;;;;;;1.13;1.00;;;6.70;99.90;;;;;;4915618;29;20472;-77
2021/12/12 14:31:33;;;;;;;2.17;1.57;;;6.70;99.90;;;;;;4915527;29;20470;-77
2021/12/12 14:34:15;;;;;;;1.27;1.17;;;6.70;99.90;;;;;;4915405;29;20439;-77
2021/12/12 14:36:44;;;;;;;3.73;1.73;;;6.70;99.90;;;;;;4915986;29;20971;-77
2021/12/12 14:39:11;;;;;;;15.13;8.50;;;6.60;99.90;;;;;;4915283;29;20868;-77
2021/12/12 14:41:41;;;;;;;5.53;1.77;;;6.60;99.90;;;;;;4915550;29;20472;-77
2021/12/12 14:44:12;;;;;;;2.40;1.60;;;6.60;99.90;;;;;;4915288;29;20391;-77
2021/12/12 14:46:44;;;;;;;1.70;1.60;;;6.60;99.90;;;;;;4915588;29;20426;-77
2021/12/12 14:49:29;;;;;;;1.30;1.20;;;6.60;99.90;;;;;;4915448;29;20392;-77
2021/12/12 14:52:10;;;;;;;1.30;1.20;;;6.60;99.90;;;;;;4914202;29;20484;-77
2021/12/12 14:54:41;;;;;;;1.33;1.00;;;6.60;99.90;;;;;;4915475;29;20940;-74
2021/12/12 14:57:12;;;;;;;1.87;1.20;;;6.60;99.90;;;;;;4915325;29;20425;-78
2021/12/12 14:59:43;;;;;;;4.13;1.87;;;6.60;99.90;;;;;;4915345;29;20506;-77
2021/12/12 15:02:21;;;;;;;3.90;1.60;;;6.60;99.90;;;;;;4915627;29;20481;-76
2021/12/12 15:04:56;;;;;;;2.73;1.60;;;6.60;99.90;;;;;;4916627;29;20418;-78
2021/12/12 15:07:25;;;;;;;1.80;1.27;;;6.50;99.90;;;;;;4915073;29;20422;-77
2021/12/12 15:10:13;;;;;;;1.37;1.27;;;6.50;99.90;;;;;;4915308;29;20469;-77
2021/12/12 15:12:44;;;;;;;2.37;1.57;;;6.60;99.90;;;;;;4915195;29;20455;-77
2021/12/12 15:15:35;;;;;;;1.87;1.33;;;6.50;99.90;;;;;;4915060;29;20416;-78
2021/12/12 15:18:06;;;;;;;1.53;1.00;;;6.50;99.90;;;;;;4915056;29;20436;-75
2021/12/12 15:20:37;;;;;;;6.57;3.50;;;6.50;99.90;;;;;;4918956;29;20468;-77
2021/12/12 15:23:10;;;;;;;2.00;1.70;;;6.50;99.90;;;;;;4914943;29;20864;-77
2021/12/12 15:25:43;;;;;;;2.67;1.30;;;6.50;99.90;;;;;;4915177;29;20412;-77
2021/12/12 15:28:13;;;;;;;1.87;1.77;;;6.40;99.90;;;;;;4914904;29;20426;-77
2021/12/12 15:30:47;;;;;;;5.00;2.40;;;6.40;99.90;;;;;;4915021;29;20480;-77
2021/12/12 15:33:17;;;;;;;1.80;1.70;;;6.30;99.90;;;;;;4915263;29;20428;-76
2021/12/12 15:35:43;;;;;;;4.23;1.10;;;6.20;99.90;;;;;;4915293;29;20526;-77
2021/12/12 15:38:15;;;;;;;3.47;1.90;;;6.20;99.90;;;;;;4913586;29;20944;-76
2021/12/12 15:40:46;;;;;;;2.30;1.70;;;6.20;99.90;;;;;;4914954;29;20457;-76
2021/12/12 15:43:21;;;;;;;1.50;1.40;;;6.10;99.90;;;;;;4914658;29;20426;-77
2021/12/12 15:45:52;;;;;;;3.40;1.93;;;6.00;99.90;;;;;;4914975;29;20505;-77
2021/12/12 15:48:29;;;;;;;2.83;2.33;;;6.00;99.90;;;;;;4914936;29;20748;-81
2021/12/12 15:50:57;;;;;;;1.93;1.40;;;6.00;99.90;;;;;;4914993;29;20446;-77
2021/12/12 15:53:26;;;;;;;1.50;1.40;;;6.00;99.90;;;;;;4914967;29;20415;-78
2021/12/12 15:56:00;;;;;;;1.93;1.70;;;6.00;99.90;;;;;;4915042;29;20424;-76
2021/12/12 15:58:31;;;;;;;1.83;1.50;;;5.90;99.90;;;;;;4915049;29;20416;-78
2021/12/12 16:01:07;;;;;;;4.97;2.40;;;5.90;99.90;;;;;;4914892;29;21057;-78
2021/12/12 16:03:50;;;;;;;2.20;2.10;;;5.90;99.90;;;;;;4914955;29;20831;-78
2021/12/12 16:06:48;;;;;;;2.60;1.90;;;5.90;99.90;;;;;;4918089;29;20448;-78
2021/12/12 16:09:20;;;;;;;1.83;1.70;;;5.90;99.90;;;;;;4915035;29;20908;-78
2021/12/12 16:11:47;;;;;;;2.40;1.90;;;5.90;99.90;;;;;;4914927;29;20446;-77
2021/12/12 16:14:13;;;;;;;1.57;1.47;;;5.80;99.90;;;;;;4914824;29;20514;-78
2021/12/12 16:16:51;;;;;;;3.23;1.63;;;5.90;99.90;;;;;;4916910;29;20398;-77
2021/12/12 16:19:27;;;;;;;2.87;2.50;;;5.90;99.90;;;;;;4918226;29;20536;-78
2021/12/12 16:21:57;;;;;;;1.83;1.33;;;5.80;99.90;;;;;;4918415;29;20496;-78
2021/12/12 16:24:39;;;;;;;9.43;5.30;;;5.90;99.90;;;;;;4917904;29;20405;-77
2021/12/12 16:27:09;;;;;;;8.53;3.70;;;5.90;99.90;;;;;;4918013;29;20394;-77
2021/12/12 16:29:36;;;;;;;2.63;2.13;;;5.90;99.90;;;;;;4918147;29;21012;-77
2021/12/12 16:32:05;;;;;;;2.57;2.00;;;6.00;99.90;;;;;;4917900;29;20531;-77
2021/12/12 16:34:37;;;;;;;2.30;1.80;;;6.00;99.90;;;;;;4917876;29;20426;-77
2021/12/12 16:37:14;;;;;;;1.97;1.70;;;5.90;99.90;;;;;;4917930;29;20431;-78
2021/12/12 16:39:49;;;;;;;2.83;2.63;;;5.90;99.90;;;;;;4918112;29;20532;-77
2021/12/12 16:42:19;;;;;;;3.50;2.10;;;5.90;99.90;;;;;;4917864;29;20438;-78
2021/12/12 16:44:54;;;;;;;2.93;2.63;;;5.90;99.90;;;;;;4917800;29;20425;-77
2021/12/12 16:47:33;;;;;;;3.33;2.60;;;5.90;99.90;;;;;;4917744;29;20911;-77
2021/12/12 16:50:03;;;;;;;3.67;1.53;;;5.90;99.90;;;;;;4917801;29;20423;-78
2021/12/12 16:52:31;;;;;;;2.40;2.20;;;6.00;99.90;;;;;;4917740;29;20447;-77
2021/12/12 16:55:10;;;;;;;2.63;1.70;;;5.90;99.90;;;;;;4917593;29;20434;-77
2021/12/12 16:57:40;;;;;;;8.00;1.57;;;5.90;99.90;;;;;;4917817;29;20434;-78
2021/12/12 17:00:09;;;;;;;13.37;6.30;;;5.90;99.90;;;;;;4918432;29;20469;-77
2021/12/12 17:02:37;;;;;;;16.80;6.30;;;5.90;99.90;;;;;;4917391;29;20535;-77
2021/12/12 17:05:07;;;;;;;9.80;5.63;;;6.00;99.90;;;;;;4917402;29;20418;-77
2021/12/12 17:07:46;;;;;;;6.93;4.50;;;6.00;99.90;;;;;;4917434;29;20418;-78
2021/12/12 17:10:13;;;;;;;2.70;2.13;;;6.00;99.90;;;;;;4917381;29;20432;-76
2021/12/12 17:12:46;;;;;;;2.90;1.83;;;6.00;99.90;;;;;;4917323;29;20524;-78
2021/12/12 17:15:24;;;;;;;8.00;2.07;;;6.00;99.90;;;;;;4915525;29;20549;-79
2021/12/12 17:18:00;;;;;;;2.20;1.43;;;6.00;99.90;;;;;;4917295;29;20428;-77
2021/12/12 17:20:45;;;;;;;2.13;2.00;;;6.00;99.90;;;;;;4917210;29;20883;-78
2021/12/12 17:23:18;;;;;;;3.13;2.00;;;6.00;99.90;;;;;;4916988;29;20426;-77
2021/12/12 17:25:49;;;;;;;2.27;2.07;;;6.00;99.90;;;;;;4917069;29;20423;-78
2021/12/12 17:28:18;;;;;;;4.40;2.97;;;6.00;99.90;;;;;;4916482;29;20473;-78
2021/12/12 17:31:01;;;;;;;6.53;2.20;;;6.10;99.90;;;;;;4916954;29;20512;-79
2021/12/12 17:33:29;;;;;;;2.67;2.40;;;6.00;99.90;;;;;;4916969;29;20435;-77
2021/12/12 17:36:08;;;;;;;6.77;3.03;;;6.00;99.90;;;;;;4917193;29;20843;-78
2021/12/12 17:38:39;;;;;;;10.33;5.93;;;6.00;99.90;;;;;;4917080;29;20511;-78
2021/12/12 17:41:20;;;;;;;12.63;7.23;;;6.00;99.90;;;;;;4916782;29;20498;-77
2021/12/12 17:43:48;;;;;;;7.20;4.87;;;6.00;99.90;;;;;;4916592;29;20935;-78
2021/12/12 17:47:06;;;;;;;5.67;3.70;;;6.00;99.90;;;;;;4916813;29;20419;-76
2021/12/12 17:50:06;;;;;;;8.47;5.03;;;6.00;99.90;;;;;;4905249;29;20826;-76
2021/12/12 17:52:47;;;;;;;9.03;3.00;;;6.00;99.90;;;;;;4916711;29;20456;-77
2021/12/12 17:55:29;;;;;;;3.70;3.30;;;6.10;99.90;;;;;;4916552;29;20425;-78
2021/12/12 17:58:27;;;;;;;8.13;4.17;;;6.10;99.90;;;;;;4916556;29;20423;-77
2021/12/12 18:01:11;;;;;;;6.60;4.80;;;6.10;99.90;;;;;;4917644;29;20499;-77
2021/12/12 18:03:47;;;;;;;4.87;3.17;;;6.10;99.90;;;;;;4918391;29;20827;-77
2021/12/12 18:06:16;;;;;;;3.00;1.87;;;6.20;99.90;;;;;;4916509;29;20417;-75
2021/12/12 18:08:55;;;;;;;6.77;4.00;;;6.20;99.90;;;;;;4916137;29;20949;-77
2021/12/12 18:11:25;;;;;;;4.27;3.53;;;6.20;99.90;;;;;;4916112;29;21020;-77
2021/12/12 18:13:55;;;;;;;3.47;2.90;;;6.20;99.90;;;;;;4916045;29;20418;-76